Decoded Metar for UWWW (SAMARA in RUSSIA) (IATA:KBY) | Meteo·Mobile Aviation Weather
aviador You're here:

UWWW Decoded Metar

SAMARA in RUSSIA
Report Time2019-10-21 08:00:00
UTC Time2019-10-21 08:15:03
Flight Rules ifr IFR
Wind200° at 10 kt
W.Decomp.*RWY 15: 7.9 kt HW 6.2 kt RCW
RWY 23: 7.4 kt HW 6.7 kt LCW
Visibility9999 m
Phenomena:N/A
Clouds:Overcast 006 Hf
Expected CloudBase > 400 ft AGL from Temp-Dew spread
Ceiling600 ft
Temp07°C (ISA -7)
Dew Point06°C (93% RH)
AAT2.5°C
QNH1026 hPa
Density Alt-679 ft
Elevation479 ft
Report Wrong Elevation
Raw Report
UWWW 210800Z 20005MPS 9999 OVC006 07/06 Q1026 R15/290050 NOSIG RMK
QFE758/1011=

Extra information for UWWW:More info

Metar Taf Metar & Taf Last 4 Metars F.Rules Stats Wind Profile Meteogram Temp Stats Airport Information Weather charts Add Link Nearby VenuesMetar ALERT Operation Metar Decoded Social comments